Time;durP1;ratioP1;P1;durP2;ratioP2;P2;SDS_P1;SDS_P2;PMS_P1;PMS_P2;Temp;Humidity;BMP_temperature;BMP_pressure;BME280_temperature;BME280_humidity;BME280_pressure;Samples;Min_cycle;Max_cycle;Signal;HPM_P1;HPM_P2
2024/01/21 00:00:08;;;;;;;8.45;4.38;;;2.80;93.20;;;;;;5078989;28;20277;-25
2024/01/21 00:02:38;;;;;;;4.43;3.90;;;2.80;93.20;;;;;;5059718;28;20187;-31
2024/01/21 00:05:09;;;;;;;5.20;3.70;;;2.80;93.20;;;;;;5078378;28;20314;-28
2024/01/21 00:07:35;;;;;;;5.15;4.07;;;2.80;93.10;;;;;;5078954;28;20209;-29
2024/01/21 00:10:01;;;;;;;5.10;3.93;;;2.80;93.10;;;;;;5061238;28;20214;-28
2024/01/21 00:12:27;;;;;;;5.25;4.20;;;2.80;93.00;;;;;;5079352;28;21309;-31
2024/01/21 00:14:53;;;;;;;6.07;3.87;;;2.80;92.90;;;;;;5079690;28;20202;-28
2024/01/21 00:17:19;;;;;;;4.97;3.80;;;2.70;92.90;;;;;;5079937;28;20531;-28
2024/01/21 00:19:45;;;;;;;7.30;4.70;;;2.70;92.90;;;;;;5061668;28;20260;-32
2024/01/21 00:22:12;;;;;;;4.65;3.53;;;2.70;92.80;;;;;;5079862;28;20221;-27
2024/01/21 00:24:37;;;;;;;4.88;4.05;;;2.80;92.90;;;;;;5059936;28;20273;-29
2024/01/21 00:27:04;;;;;;;5.80;4.40;;;2.80;92.80;;;;;;5080341;28;20183;-30
2024/01/21 00:29:30;;;;;;;5.18;4.35;;;2.80;92.80;;;;;;5045027;28;20499;-30
2024/01/21 00:32:00;;;;;;;5.38;3.80;;;2.80;92.80;;;;;;5061648;28;20274;-26
2024/01/21 00:34:28;;;;;;;3.90;3.50;;;2.80;92.80;;;;;;5079277;28;20362;-27
2024/01/21 00:36:57;;;;;;;4.97;3.67;;;2.80;92.70;;;;;;5062341;28;20229;-27
2024/01/21 00:39:26;;;;;;;5.60;4.27;;;2.80;92.60;;;;;;5079850;28;20265;-28
2024/01/21 00:41:52;;;;;;;5.50;3.78;;;2.80;92.80;;;;;;5061418;28;20469;-28
2024/01/21 00:44:23;;;;;;;5.88;4.30;;;2.80;92.70;;;;;;5079648;28;20206;-28
2024/01/21 00:46:50;;;;;;;6.00;4.05;;;2.80;92.70;;;;;;5078581;28;20210;-29
2024/01/21 00:49:18;;;;;;;4.25;3.80;;;2.80;92.70;;;;;;5078804;28;20183;-29
2024/01/21 00:51:45;;;;;;;5.13;4.10;;;2.80;92.70;;;;;;5044244;28;20290;-29
2024/01/21 00:54:11;;;;;;;5.75;4.10;;;2.80;92.70;;;;;;5059099;28;20792;-26
2024/01/21 00:56:39;;;;;;;4.93;3.70;;;2.80;92.50;;;;;;5060119;28;20267;-27
2024/01/21 00:59:06;;;;;;;6.27;4.37;;;2.80;92.50;;;;;;5079039;28;20191;-27
2024/01/21 01:01:37;;;;;;;4.68;4.15;;;2.80;92.50;;;;;;5042397;28;20445;-30
2024/01/21 01:04:07;;;;;;;6.07;4.57;;;2.80;92.50;;;;;;5078780;28;20218;-27
2024/01/21 01:06:34;;;;;;;6.50;4.60;;;2.80;92.50;;;;;;5078309;28;20314;-29
2024/01/21 01:09:00;;;;;;;5.05;4.35;;;2.80;92.50;;;;;;5078374;28;20246;-28
2024/01/21 01:11:29;;;;;;;6.03;4.43;;;2.80;92.50;;;;;;5076830;28;20210;-30
2024/01/21 01:13:55;;;;;;;5.80;4.32;;;2.70;92.40;;;;;;5078482;28;20940;-29
2024/01/21 01:16:22;;;;;;;5.33;4.27;;;2.80;92.50;;;;;;5078678;28;20195;-27
2024/01/21 01:18:49;;;;;;;5.03;4.18;;;2.80;92.40;;;;;;5060468;28;20474;-27
2024/01/21 01:21:18;;;;;;;5.55;4.32;;;2.80;92.40;;;;;;5078474;28;20767;-27
2024/01/21 01:23:46;;;;;;;9.02;4.53;;;2.80;92.40;;;;;;5045087;28;20214;-30
2024/01/21 01:26:15;;;;;;;7.40;5.20;;;2.80;92.40;;;;;;5080342;28;20187;-28
2024/01/21 01:28:41;;;;;;;9.45;4.63;;;2.80;92.40;;;;;;5060768;28;20183;-26
2024/01/21 01:31:07;;;;;;;6.22;4.25;;;2.80;92.40;;;;;;5080939;28;20209;-28
2024/01/21 01:33:33;;;;;;;6.25;4.90;;;2.80;92.40;;;;;;5061330;28;20195;-28
2024/01/21 01:36:00;;;;;;;5.50;4.40;;;2.80;92.50;;;;;;5080231;28;20198;-27
2024/01/21 01:38:26;;;;;;;7.13;4.82;;;2.80;92.50;;;;;;5059095;28;20416;-27
2024/01/21 01:40:52;;;;;;;6.80;5.80;;;2.80;92.60;;;;;;5059396;28;20222;-28
2024/01/21 01:43:18;;;;;;;6.32;4.50;;;2.70;92.50;;;;;;5058275;28;20336;-30
2024/01/21 01:45:45;;;;;;;6.90;4.73;;;2.70;92.40;;;;;;5078052;28;20290;-30
2024/01/21 01:48:12;;;;;;;9.43;5.25;;;2.80;92.40;;;;;;5058358;28;21049;-29
2024/01/21 01:50:38;;;;;;;6.28;4.63;;;2.70;92.30;;;;;;5037580;28;20203;-30
2024/01/21 01:53:06;;;;;;;6.88;5.35;;;2.80;92.60;;;;;;5076161;28;20191;-29
2024/01/21 01:55:32;;;;;;;7.28;5.53;;;2.80;92.50;;;;;;5077056;28;20305;-27
2024/01/21 01:57:58;;;;;;;7.80;5.65;;;2.80;92.40;;;;;;5042381;28;20244;-29
2024/01/21 02:00:28;;;;;;;6.55;4.60;;;2.80;92.40;;;;;;5078253;28;20293;-28
2024/01/21 02:02:54;;;;;;;7.95;5.43;;;2.80;92.40;;;;;;5059803;28;20206;-30
2024/01/21 02:05:24;;;;;;;5.95;4.50;;;2.80;92.40;;;;;;5077857;28;20275;-27
2024/01/21 02:07:50;;;;;;;7.63;5.53;;;2.80;92.50;;;;;;5059961;28;20245;-30
2024/01/21 02:10:16;;;;;;;7.63;5.80;;;2.80;92.40;;;;;;5077781;28;20206;-28
2024/01/21 02:12:45;;;;;;;9.70;5.60;;;2.80;92.40;;;;;;5042385;28;20975;-29
2024/01/21 02:15:13;;;;;;;7.20;4.80;;;2.80;92.40;;;;;;5059514;28;20792;-27
2024/01/21 02:17:40;;;;;;;8.63;5.65;;;2.80;92.40;;;;;;5076034;28;20272;-28
2024/01/21 02:20:09;;;;;;;7.35;5.47;;;2.80;92.40;;;;;;5074829;28;20279;-27
2024/01/21 02:22:41;;;;;;;7.13;5.18;;;2.80;92.50;;;;;;5058113;28;20194;-28
2024/01/21 02:25:10;;;;;;;8.32;5.28;;;2.80;92.40;;;;;;5077538;28;20285;-30
2024/01/21 02:27:40;;;;;;;8.13;5.18;;;2.80;92.40;;;;;;5075831;28;20207;-26
2024/01/21 02:30:08;;;;;;;10.05;6.20;;;2.80;92.30;;;;;;5058276;28;21140;-29
2024/01/21 02:32:33;;;;;;;7.03;6.15;;;2.80;92.40;;;;;;5076790;28;21107;-29
2024/01/21 02:35:02;;;;;;;7.67;6.07;;;2.80;92.40;;;;;;5082684;28;20191;-27
2024/01/21 02:37:30;;;;;;;8.95;6.00;;;2.80;92.40;;;;;;5081725;28;20445;-29
2024/01/21 02:39:58;;;;;;;7.88;5.88;;;2.80;92.40;;;;;;5081703;28;20203;-28
2024/01/21 02:42:26;;;;;;;8.23;5.57;;;2.80;92.40;;;;;;5082764;28;21016;-30
2024/01/21 02:44:54;;;;;;;7.85;5.95;;;2.80;92.40;;;;;;5064312;28;20818;-27
2024/01/21 02:47:23;;;;;;;8.90;6.18;;;2.80;92.40;;;;;;5083052;28;20372;-29
2024/01/21 02:49:50;;;;;;;7.75;5.45;;;2.80;92.30;;;;;;5062034;28;20207;-28
2024/01/21 02:52:16;;;;;;;10.02;6.10;;;2.80;92.20;;;;;;5082174;28;20274;-28
2024/01/21 02:54:42;;;;;;;9.70;6.37;;;2.80;92.20;;;;;;5063079;28;20277;-29
2024/01/21 02:57:08;;;;;;;8.38;6.10;;;2.80;92.20;;;;;;5080914;28;20441;-29
2024/01/21 02:59:34;;;;;;;8.02;6.15;;;2.80;92.20;;;;;;5062296;28;20211;-30
2024/01/21 03:02:04;;;;;;;10.95;6.35;;;2.80;92.10;;;;;;5080813;28;20209;-28
2024/01/21 03:04:32;;;;;;;8.38;6.25;;;2.80;92.10;;;;;;5080042;28;20215;-29
2024/01/21 03:06:58;;;;;;;7.90;6.17;;;2.80;92.10;;;;;;5080265;28;20240;-27
2024/01/21 03:09:28;;;;;;;8.38;5.75;;;2.80;92.10;;;;;;5061457;28;20475;-28
2024/01/21 03:11:56;;;;;;;9.32;6.13;;;2.80;91.90;;;;;;5080709;28;20221;-27
2024/01/21 03:14:27;;;;;;;10.32;7.07;;;2.80;91.80;;;;;;5061546;28;20202;-29
2024/01/21 03:16:53;;;;;;;11.18;6.40;;;2.80;91.80;;;;;;5079572;28;20183;-30
2024/01/21 03:19:19;;;;;;;9.30;6.60;;;2.80;91.80;;;;;;5043741;28;20203;-29
2024/01/21 03:21:46;;;;;;;10.32;6.30;;;2.80;91.60;;;;;;5080032;28;20213;-28
2024/01/21 03:24:16;;;;;;;8.50;6.75;;;2.80;91.70;;;;;;5060850;28;20222;-30
2024/01/21 03:26:42;;;;;;;8.23;5.95;;;2.80;91.90;;;;;;5079307;28;20894;-29
2024/01/21 03:29:08;;;;;;;9.80;6.13;;;2.80;91.90;;;;;;5083110;28;20240;-29
2024/01/21 03:31:35;;;;;;;8.05;6.07;;;2.80;91.80;;;;;;5051832;23;20469;-31
2024/01/21 03:34:03;;;;;;;10.45;6.22;;;2.80;91.80;;;;;;5060854;28;20780;-31
2024/01/21 03:36:30;;;;;;;9.60;6.80;;;2.80;91.70;;;;;;5061867;28;20628;-29
2024/01/21 03:38:56;;;;;;;8.77;5.88;;;2.80;91.70;;;;;;5079825;28;20736;-32
2024/01/21 03:41:22;;;;;;;10.05;6.47;;;2.80;91.70;;;;;;5080808;28;20257;-34
2024/01/21 03:43:50;;;;;;;9.33;6.40;;;2.80;91.70;;;;;;5079156;28;20175;-34
2024/01/21 03:46:19;;;;;;;8.93;6.40;;;2.80;91.60;;;;;;5061974;28;20404;-31
2024/01/21 03:48:47;;;;;;;8.48;6.03;;;2.80;91.50;;;;;;5079457;28;20646;-34
2024/01/21 03:51:13;;;;;;;8.30;6.43;;;2.80;91.50;;;;;;5044860;28;20199;-35
2024/01/21 03:53:40;;;;;;;9.68;6.78;;;2.80;91.50;;;;;;5079967;28;20172;-31
2024/01/21 03:56:09;;;;;;;10.50;6.85;;;2.80;91.50;;;;;;5062122;28;20729;-28
2024/01/21 03:58:35;;;;;;;8.23;6.05;;;2.80;91.50;;;;;;5080301;28;20234;-31
2024/01/21 04:01:04;;;;;;;9.15;6.57;;;2.80;91.60;;;;;;5045618;28;20202;-31
2024/01/21 04:03:33;;;;;;;7.80;5.85;;;2.80;91.60;;;;;;5062179;28;20202;-31
2024/01/21 04:05:58;;;;;;;9.63;6.00;;;2.80;91.60;;;;;;5062162;28;20207;-33
2024/01/21 04:08:27;;;;;;;9.77;5.97;;;2.80;91.70;;;;;;5046165;28;20176;-36
2024/01/21 04:10:54;;;;;;;8.63;5.53;;;2.80;91.70;;;;;;5062326;28;20206;-32
2024/01/21 04:13:21;;;;;;;8.98;6.10;;;2.80;91.60;;;;;;5062407;28;20418;-36
2024/01/21 04:15:47;;;;;;;9.02;5.90;;;2.80;91.60;;;;;;5044411;28;20598;-33
2024/01/21 04:18:13;;;;;;;9.55;6.07;;;2.80;91.50;;;;;;5076041;28;20565;-29
2024/01/21 04:20:39;;;;;;;8.45;6.30;;;2.80;91.50;;;;;;5040743;28;20203;-28
2024/01/21 04:23:05;;;;;;;8.10;5.43;;;2.80;91.40;;;;;;5060884;28;21030;-32
2024/01/21 04:25:31;;;;;;;8.88;6.38;;;2.80;91.40;;;;;;5083095;28;20211;-32
2024/01/21 04:27:57;;;;;;;9.55;7.03;;;2.80;91.40;;;;;;5082383;28;20183;-31
2024/01/21 04:30:26;;;;;;;7.32;5.20;;;2.80;91.40;;;;;;5063601;28;20221;-31
2024/01/21 04:32:54;;;;;;;9.18;5.80;;;2.80;91.30;;;;;;5047052;28;20237;-31
2024/01/21 04:35:20;;;;;;;8.00;5.97;;;2.80;91.20;;;;;;5062404;28;20723;-29
2024/01/21 04:37:49;;;;;;;8.07;6.28;;;2.80;91.20;;;;;;5079957;28;20658;-30
2024/01/21 04:40:15;;;;;;;7.75;5.60;;;2.80;91.10;;;;;;5080000;28;20240;-27
2024/01/21 04:42:46;;;;;;;6.70;5.37;;;2.80;90.90;;;;;;5079967;28;20183;-29
2024/01/21 04:45:16;;;;;;;5.97;4.63;;;2.80;90.80;;;;;;5082540;28;20479;-26
2024/01/21 04:47:42;;;;;;;9.00;5.80;;;2.80;90.70;;;;;;5048528;28;20206;-33
2024/01/21 04:50:58;;;;;;;8.33;5.87;;;2.80;90.60;;;;;;5081272;28;21220;-32
2024/01/21 04:53:24;;;;;;;6.38;5.38;;;2.80;90.40;;;;;;5081088;28;20435;-33
2024/01/21 04:55:52;;;;;;;6.90;5.50;;;2.80;90.30;;;;;;5064138;28;20183;-31
2024/01/21 04:58:20;;;;;;;7.18;4.93;;;2.80;90.30;;;;;;5082307;28;20425;-31
2024/01/21 05:00:46;;;;;;;5.63;4.90;;;2.80;90.40;;;;;;5082959;28;20285;-31
2024/01/21 05:03:13;;;;;;;9.73;5.97;;;2.80;90.50;;;;;;5066083;28;20211;-30
2024/01/21 05:05:39;;;;;;;8.00;4.95;;;2.80;90.60;;;;;;5080421;28;20580;-27
2024/01/21 05:08:31;;;;;;;8.13;5.23;;;2.80;90.50;;;;;;5080598;28;20183;-36
2024/01/21 05:10:57;;;;;;;9.48;6.90;;;2.80;90.50;;;;;;5076861;28;20492;-31
2024/01/21 05:13:23;;;;;;;8.32;6.30;;;2.90;90.70;;;;;;5074414;28;20184;-32
2024/01/21 05:15:53;;;;;;;5.20;4.70;;;2.90;90.60;;;;;;5043119;28;20638;-29
2024/01/21 05:18:23;;;;;;;6.85;5.05;;;2.90;90.60;;;;;;5074964;28;20679;-34
2024/01/21 05:20:49;;;;;;;9.13;5.50;;;2.90;90.50;;;;;;5071068;28;20199;-32
2024/01/21 05:23:15;;;;;;;8.38;6.03;;;2.90;90.50;;;;;;5078299;28;20729;-30
2024/01/21 05:25:41;;;;;;;9.03;5.93;;;2.90;90.40;;;;;;5058417;28;20214;-30
2024/01/21 05:28:07;;;;;;;7.20;5.00;;;2.90;90.30;;;;;;5053586;28;20556;-29
2024/01/21 05:30:33;;;;;;;7.50;5.50;;;2.90;90.20;;;;;;5059789;28;20516;-29
2024/01/21 05:32:59;;;;;;;7.68;4.80;;;2.90;90.20;;;;;;5078657;28;21068;-31
2024/01/21 05:35:27;;;;;;;8.10;5.40;;;2.90;90.20;;;;;;5075691;28;20963;-32
2024/01/21 05:37:53;;;;;;;6.97;5.10;;;2.90;90.00;;;;;;5043599;28;20201;-33
2024/01/21 05:40:21;;;;;;;6.70;5.45;;;2.90;90.00;;;;;;5079455;28;20448;-30
2024/01/21 05:42:47;;;;;;;6.57;5.77;;;2.90;90.10;;;;;;5058785;28;20196;-33
2024/01/21 05:45:13;;;;;;;8.30;5.90;;;2.90;90.20;;;;;;5076629;28;20569;-27
2024/01/21 05:47:39;;;;;;;8.20;5.47;;;2.90;90.20;;;;;;5077090;28;20183;-27
2024/01/21 05:50:08;;;;;;;8.25;5.65;;;2.90;90.20;;;;;;5056387;28;20456;-30
2024/01/21 05:52:36;;;;;;;5.97;4.40;;;2.90;90.30;;;;;;5041523;28;20769;-27
2024/01/21 05:55:04;;;;;;;6.40;5.13;;;2.90;90.30;;;;;;5059673;28;20199;-28
2024/01/21 05:57:32;;;;;;;7.75;5.50;;;2.90;90.20;;;;;;5057050;28;20218;-28
2024/01/21 06:00:00;;;;;;;8.52;5.22;;;2.90;90.20;;;;;;5052037;28;20199;-28
2024/01/21 06:02:31;;;;;;;6.25;5.25;;;2.90;90.20;;;;;;5042708;28;20614;-28
2024/01/21 06:04:57;;;;;;;7.72;5.47;;;2.90;90.60;;;;;;5072651;28;20594;-31
2024/01/21 06:07:25;;;;;;;7.32;4.90;;;2.90;90.30;;;;;;5077129;28;20263;-27
2024/01/21 06:09:51;;;;;;;6.97;5.45;;;2.90;90.40;;;;;;5076564;28;20198;-28
2024/01/21 06:12:17;;;;;;;7.38;5.20;;;2.90;90.30;;;;;;5041078;28;20756;-28
2024/01/21 06:14:46;;;;;;;8.13;5.50;;;2.90;90.30;;;;;;5077383;28;20281;-28
2024/01/21 06:17:15;;;;;;;6.72;4.97;;;2.90;90.30;;;;;;5078626;28;20502;-32
2024/01/21 06:19:41;;;;;;;6.95;4.95;;;2.90;90.00;;;;;;5081393;28;20724;-29
2024/01/21 06:22:07;;;;;;;7.63;6.13;;;2.90;90.20;;;;;;5082506;28;20179;-29
2024/01/21 06:24:39;;;;;;;8.23;5.00;;;2.90;90.30;;;;;;5081254;28;20495;-27
2024/01/21 06:27:05;;;;;;;8.35;6.95;;;2.90;90.40;;;;;;5059060;28;20183;-30
2024/01/21 06:29:32;;;;;;;7.00;5.33;;;2.90;90.50;;;;;;5057800;28;20214;-28
2024/01/21 06:32:01;;;;;;;9.10;5.75;;;2.90;90.50;;;;;;5052562;28;20437;-27
2024/01/21 06:34:28;;;;;;;10.40;5.40;;;2.90;90.50;;;;;;5055934;28;20242;-29
2024/01/21 06:36:57;;;;;;;10.18;5.63;;;2.90;90.50;;;;;;5056585;28;20195;-29
2024/01/21 06:39:26;;;;;;;8.60;5.50;;;2.90;90.60;;;;;;5073826;28;20316;-28
2024/01/21 06:41:52;;;;;;;6.87;5.63;;;2.90;90.80;;;;;;5075833;28;20206;-28
2024/01/21 06:44:23;;;;;;;7.40;5.72;;;2.90;90.70;;;;;;5075903;28;20483;-28
2024/01/21 06:46:52;;;;;;;7.70;5.57;;;2.90;90.60;;;;;;5074921;28;20197;-32
2024/01/21 06:49:18;;;;;;;6.35;4.93;;;2.90;90.60;;;;;;5075336;28;20756;-28
2024/01/21 06:51:46;;;;;;;7.53;5.03;;;2.90;90.60;;;;;;5031236;28;20187;-28
2024/01/21 06:54:16;;;;;;;6.60;5.25;;;2.90;90.70;;;;;;5074374;28;20198;-27
2024/01/21 06:56:43;;;;;;;7.72;5.60;;;2.90;90.60;;;;;;5057521;28;20202;-30
2024/01/21 06:59:09;;;;;;;8.23;6.28;;;2.90;90.50;;;;;;5077177;28;20839;-32
2024/01/21 07:01:35;;;;;;;9.77;6.20;;;2.90;90.40;;;;;;5055463;28;20218;-27
2024/01/21 07:04:01;;;;;;;9.85;5.90;;;2.90;90.50;;;;;;5058412;28;20463;-28
2024/01/21 07:06:33;;;;;;;8.82;5.80;;;3.00;90.70;;;;;;5076370;28;20195;-28
2024/01/21 07:08:59;;;;;;;7.15;5.63;;;2.90;90.70;;;;;;5041919;28;20307;-30
2024/01/21 07:11:25;;;;;;;6.03;5.03;;;2.90;90.70;;;;;;5058631;28;20241;-31
2024/01/21 07:13:51;;;;;;;9.70;6.30;;;2.90;90.80;;;;;;5059957;28;20187;-31
2024/01/21 07:16:18;;;;;;;7.45;6.40;;;2.90;90.70;;;;;;5075798;28;20203;-28
2024/01/21 07:18:47;;;;;;;9.23;6.20;;;2.90;90.70;;;;;;5077555;28;20981;-28
2024/01/21 07:21:14;;;;;;;7.67;5.40;;;2.90;90.60;;;;;;5078879;28;20209;-28
2024/01/21 07:23:40;;;;;;;7.97;6.38;;;2.90;90.70;;;;;;5079250;28;20441;-27
2024/01/21 07:26:07;;;;;;;6.80;5.88;;;2.90;90.90;;;;;;5078301;28;20276;-29
2024/01/21 07:28:33;;;;;;;8.32;6.07;;;2.90;91.00;;;;;;5061270;28;20225;-26
2024/01/21 07:30:59;;;;;;;7.30;6.13;;;2.90;91.00;;;;;;5061453;28;20205;-32
2024/01/21 07:33:25;;;;;;;9.35;6.03;;;2.90;91.10;;;;;;5061043;28;20451;-29
2024/01/21 07:35:53;;;;;;;8.90;6.23;;;2.90;91.20;;;;;;5076974;28;20199;-27
2024/01/21 07:38:19;;;;;;;7.78;6.30;;;2.90;91.20;;;;;;5060989;28;20425;-29
2024/01/21 07:40:47;;;;;;;10.07;6.30;;;2.90;91.20;;;;;;5076896;28;20352;-27
2024/01/21 07:43:13;;;;;;;10.95;6.05;;;3.00;91.30;;;;;;5078699;28;21323;-27
2024/01/21 07:45:40;;;;;;;9.88;5.85;;;3.00;91.30;;;;;;5057706;28;20220;-28
2024/01/21 07:48:10;;;;;;;8.57;6.55;;;2.90;91.30;;;;;;5057098;28;20187;-27
2024/01/21 07:50:39;;;;;;;7.07;5.75;;;2.90;91.40;;;;;;5057041;28;20222;-28
2024/01/21 07:53:05;;;;;;;9.85;6.40;;;2.90;91.40;;;;;;5076488;28;20186;-30
2024/01/21 07:55:37;;;;;;;9.40;6.38;;;2.90;91.50;;;;;;5042705;28;20203;-28
2024/01/21 07:58:03;;;;;;;11.13;6.18;;;2.90;91.50;;;;;;5078035;28;20183;-31
2024/01/21 08:00:30;;;;;;;8.70;5.85;;;2.90;91.40;;;;;;5076465;28;20500;-26
2024/01/21 08:02:55;;;;;;;8.32;6.28;;;2.90;91.40;;;;;;5059744;28;20217;-30
2024/01/21 08:05:24;;;;;;;9.90;6.40;;;2.90;91.40;;;;;;5076997;28;20795;-31
2024/01/21 08:07:50;;;;;;;8.10;6.40;;;2.90;91.30;;;;;;5058840;28;20458;-31
2024/01/21 08:10:15;;;;;;;8.27;6.60;;;2.90;91.40;;;;;;5036868;28;20193;-30
2024/01/21 08:12:42;;;;;;;9.07;7.00;;;2.90;91.50;;;;;;5076939;28;20429;-29
2024/01/21 08:15:10;;;;;;;11.88;7.45;;;2.90;91.50;;;;;;5077946;28;20195;-29
2024/01/21 08:17:36;;;;;;;12.00;6.50;;;2.90;91.50;;;;;;5077016;28;20187;-30
2024/01/21 08:20:03;;;;;;;10.70;6.15;;;2.90;91.60;;;;;;5058185;28;20590;-29
2024/01/21 08:22:29;;;;;;;9.05;5.90;;;2.90;91.60;;;;;;5075679;28;20294;-30
2024/01/21 08:24:56;;;;;;;8.20;6.00;;;2.90;91.60;;;;;;5058476;28;20772;-28
2024/01/21 08:27:25;;;;;;;8.93;6.22;;;2.90;91.60;;;;;;5058217;28;21045;-30
2024/01/21 08:29:51;;;;;;;9.32;7.13;;;2.90;91.60;;;;;;5074283;28;20206;-29
2024/01/21 08:32:18;;;;;;;9.35;6.47;;;2.90;91.60;;;;;;5076128;28;20211;-29
2024/01/21 08:34:44;;;;;;;8.97;6.77;;;3.00;91.60;;;;;;5058551;28;20278;-30
2024/01/21 08:37:13;;;;;;;11.25;7.10;;;2.90;91.60;;;;;;5058135;28;20426;-27
2024/01/21 08:39:42;;;;;;;10.25;6.97;;;2.90;91.60;;;;;;5043286;28;20264;-27
2024/01/21 08:42:08;;;;;;;9.75;6.30;;;3.00;91.70;;;;;;5073049;28;20955;-28
2024/01/21 08:44:34;;;;;;;7.93;6.03;;;3.00;91.70;;;;;;5075333;28;20218;-33
2024/01/21 08:47:00;;;;;;;10.20;6.18;;;3.00;91.80;;;;;;5054576;28;20202;-28
2024/01/21 08:49:32;;;;;;;11.60;6.73;;;3.00;91.80;;;;;;5073419;28;20744;-28
2024/01/21 08:51:58;;;;;;;9.32;6.75;;;3.00;91.80;;;;;;5077878;28;20501;-31
2024/01/21 08:54:27;;;;;;;16.33;7.32;;;3.00;91.80;;;;;;5058375;28;20252;-28
2024/01/21 08:56:58;;;;;;;11.10;6.97;;;3.00;91.80;;;;;;5073564;28;20269;-29
2024/01/21 08:59:27;;;;;;;11.38;7.00;;;3.00;91.90;;;;;;5057511;28;20679;-28
2024/01/21 09:01:53;;;;;;;10.70;7.15;;;3.00;91.80;;;;;;5076348;28;20214;-31
2024/01/21 09:04:19;;;;;;;8.20;6.50;;;3.00;91.80;;;;;;5071039;28;20211;-28
2024/01/21 09:06:45;;;;;;;9.80;7.33;;;3.00;91.80;;;;;;5060033;28;20191;-28
2024/01/21 09:09:11;;;;;;;10.27;6.13;;;3.00;91.90;;;;;;5076962;28;20441;-28
2024/01/21 09:11:40;;;;;;;10.02;6.93;;;3.00;91.80;;;;;;5040694;28;20194;-26
2024/01/21 09:14:12;;;;;;;8.75;6.72;;;3.00;91.80;;;;;;5060000;28;20611;-28
2024/01/21 09:16:38;;;;;;;7.15;6.05;;;3.00;91.90;;;;;;5075192;28;20216;-28
2024/01/21 09:19:04;;;;;;;10.45;7.60;;;3.00;91.90;;;;;;5076971;28;20243;-28
2024/01/21 09:21:36;;;;;;;9.98;6.70;;;3.00;91.90;;;;;;5079507;28;20954;-29
2024/01/21 09:24:04;;;;;;;10.23;6.15;;;3.00;91.90;;;;;;5058240;28;20195;-26
2024/01/21 09:26:32;;;;;;;8.82;6.63;;;3.00;92.00;;;;;;5059923;28;20214;-29
2024/01/21 09:28:58;;;;;;;10.55;7.32;;;3.00;91.90;;;;;;5060275;28;20182;-30
2024/01/21 09:31:27;;;;;;;15.32;7.68;;;3.00;92.00;;;;;;5060018;28;20252;-32
2024/01/21 09:33:56;;;;;;;9.82;7.28;;;3.00;92.00;;;;;;5079439;28;20210;-27
2024/01/21 09:36:23;;;;;;;10.25;7.00;;;3.00;92.10;;;;;;5063158;28;20195;-28
2024/01/21 09:38:52;;;;;;;11.10;7.53;;;3.00;92.10;;;;;;5082362;28;20179;-29
2024/01/21 09:41:50;;;;;;;9.82;7.82;;;3.00;92.00;;;;;;5079878;28;20515;-30
2024/01/21 09:44:19;;;;;;;11.27;7.80;;;3.10;92.40;;;;;;5058789;28;20868;-30
2024/01/21 09:47:01;;;;;;;9.88;6.60;;;3.00;92.10;;;;;;5080938;28;20184;-29
2024/01/21 09:49:28;;;;;;;14.75;8.38;;;3.00;92.00;;;;;;5063061;28;20210;-28
2024/01/21 09:51:55;;;;;;;13.20;6.90;;;3.10;92.00;;;;;;5080173;28;20186;-29
2024/01/21 09:54:23;;;;;;;11.40;7.30;;;3.00;92.10;;;;;;5062319;28;20285;-29
2024/01/21 09:56:49;;;;;;;9.70;7.63;;;3.10;92.10;;;;;;5079160;28;20186;-30
2024/01/21 09:59:16;;;;;;;8.00;7.00;;;3.00;92.10;;;;;;5056240;28;20295;-31
2024/01/21 10:01:43;;;;;;;9.40;7.20;;;3.00;92.00;;;;;;5068497;28;20187;-29
2024/01/21 10:04:10;;;;;;;7.30;6.25;;;3.10;92.00;;;;;;5076100;28;20345;-29
2024/01/21 10:06:36;;;;;;;11.20;6.95;;;3.00;92.00;;;;;;5072899;28;20958;-29
2024/01/21 10:09:19;;;;;;;10.60;7.55;;;3.10;92.10;;;;;;5076298;28;20277;-29
2024/01/21 10:11:59;;;;;;;9.85;7.35;;;3.10;92.10;;;;;;5073751;28;20187;-29
2024/01/21 10:14:26;;;;;;;11.98;6.90;;;3.10;92.10;;;;;;5056868;28;20210;-33
2024/01/21 10:16:55;;;;;;;9.90;7.10;;;3.10;92.10;;;;;;5075163;28;20221;-34
2024/01/21 10:19:30;;;;;;;11.90;7.35;;;3.10;92.10;;;;;;5057445;28;20215;-31
2024/01/21 10:22:29;;;;;;;10.40;6.90;;;3.10;92.20;;;;;;5022736;28;20191;-29
2024/01/21 10:24:58;;;;;;;11.13;7.38;;;3.10;92.20;;;;;;5023233;28;20227;-30
2024/01/21 10:27:25;;;;;;;12.50;7.47;;;3.10;92.30;;;;;;5057008;28;20211;-30
2024/01/21 10:29:51;;;;;;;11.30;7.57;;;3.10;92.30;;;;;;5073490;28;20234;-30
2024/01/21 10:32:18;;;;;;;9.23;6.70;;;3.10;92.30;;;;;;5035963;28;20671;-29
2024/01/21 10:34:49;;;;;;;11.43;7.97;;;3.10;92.30;;;;;;5054426;28;20499;-33
2024/01/21 10:37:15;;;;;;;11.95;7.13;;;3.10;92.30;;;;;;5053979;28;20241;-29
2024/01/21 10:39:48;;;;;;;13.38;8.18;;;3.10;92.30;;;;;;5075637;28;20690;-29
2024/01/21 10:42:15;;;;;;;9.88;7.35;;;3.10;92.30;;;;;;5055476;28;20549;-31
2024/01/21 10:44:47;;;;;;;10.23;7.60;;;3.10;92.40;;;;;;5074339;28;20833;-31
2024/01/21 10:47:14;;;;;;;10.55;6.70;;;3.20;92.40;;;;;;5039391;28;20824;-30
2024/01/21 10:49:42;;;;;;;11.10;7.95;;;3.20;92.50;;;;;;5057168;28;20211;-29
2024/01/21 10:52:11;;;;;;;9.60;7.80;;;3.20;92.50;;;;;;5058132;28;20783;-31
2024/01/21 10:54:38;;;;;;;13.80;9.88;;;3.20;92.50;;;;;;5077626;28;20563;-29
2024/01/21 10:57:04;;;;;;;11.52;8.15;;;3.20;92.60;;;;;;5062993;28;20464;-29
2024/01/21 10:59:38;;;;;;;12.38;7.25;;;3.20;92.60;;;;;;5078923;28;20226;-28
2024/01/21 11:02:05;;;;;;;13.90;7.28;;;3.20;92.60;;;;;;5075647;28;20747;-28
2024/01/21 11:04:34;;;;;;;9.10;7.40;;;3.20;92.60;;;;;;5059204;28;20303;-28
2024/01/21 11:07:03;;;;;;;10.77;7.43;;;3.20;92.60;;;;;;5075000;28;20195;-32
2024/01/21 11:09:32;;;;;;;9.57;6.85;;;3.20;92.70;;;;;;5077218;28;20276;-30
2024/01/21 11:11:59;;;;;;;11.65;7.90;;;3.20;92.70;;;;;;5039071;28;20185;-31
2024/01/21 11:14:36;;;;;;;9.10;6.65;;;3.20;92.70;;;;;;5055792;28;20567;-31
2024/01/21 11:17:07;;;;;;;9.43;6.88;;;3.20;92.70;;;;;;5039998;28;20284;-30
2024/01/21 11:19:55;;;;;;;8.63;7.35;;;3.20;92.80;;;;;;5076495;28;20242;-31
2024/01/21 11:22:25;;;;;;;10.18;7.53;;;3.20;92.80;;;;;;5059109;28;20217;-29
2024/01/21 11:24:55;;;;;;;11.77;7.18;;;3.20;92.80;;;;;;5059652;28;20243;-30
2024/01/21 11:27:24;;;;;;;9.95;7.05;;;3.20;92.90;;;;;;5057457;28;20697;-32
2024/01/21 11:29:55;;;;;;;9.55;7.35;;;3.20;92.90;;;;;;5057890;28;20748;-29
2024/01/21 11:32:28;;;;;;;11.10;7.30;;;3.20;92.90;;;;;;5060736;28;20210;-30
2024/01/21 11:35:16;;;;;;;11.60;7.47;;;3.20;92.90;;;;;;5061341;28;20237;-31
2024/01/21 11:37:47;;;;;;;8.68;7.28;;;3.20;92.90;;;;;;5080338;28;20195;-29
2024/01/21 11:40:15;;;;;;;12.07;7.95;;;3.20;93.00;;;;;;5082506;28;20257;-28
2024/01/21 11:42:43;;;;;;;11.30;7.43;;;3.20;93.00;;;;;;5063985;28;20654;-27
2024/01/21 11:45:13;;;;;;;11.77;6.85;;;3.20;93.00;;;;;;5065341;28;20272;-29
2024/01/21 11:47:41;;;;;;;10.02;7.80;;;3.30;93.10;;;;;;5033029;28;20214;-33
2024/01/21 11:50:09;;;;;;;10.93;7.80;;;3.30;93.10;;;;;;5066129;28;20207;-30
2024/01/21 11:52:39;;;;;;;7.75;6.70;;;3.30;93.20;;;;;;5059182;28;20191;-28
2024/01/21 11:55:07;;;;;;;10.43;7.35;;;3.30;93.20;;;;;;5083504;28;20186;-28
2024/01/21 11:57:34;;;;;;;10.60;7.35;;;3.30;93.30;;;;;;5065038;28;20191;-26
2024/01/21 12:00:01;;;;;;;9.85;6.97;;;3.30;93.30;;;;;;5083666;28;20545;-27
2024/01/21 12:02:38;;;;;;;12.43;8.07;;;3.30;93.30;;;;;;5084520;28;20190;-27
2024/01/21 12:05:07;;;;;;;10.87;7.73;;;3.30;93.40;;;;;;5066337;28;20709;-32
2024/01/21 12:07:36;;;;;;;10.82;7.18;;;3.30;93.40;;;;;;5060471;28;20445;-27
2024/01/21 12:10:03;;;;;;;11.63;7.63;;;3.30;93.40;;;;;;5061349;28;20301;-28
2024/01/21 12:12:30;;;;;;;9.25;7.47;;;3.30;93.50;;;;;;5041345;28;20807;-28
2024/01/21 12:14:58;;;;;;;10.45;7.60;;;3.30;93.60;;;;;;5078080;28;20783;-26
2024/01/21 12:17:24;;;;;;;10.13;7.60;;;3.30;93.60;;;;;;5036386;28;20562;-28
2024/01/21 12:19:52;;;;;;;10.50;7.90;;;3.30;93.60;;;;;;5076616;28;20736;-27
2024/01/21 12:22:38;;;;;;;12.10;8.23;;;3.30;93.60;;;;;;5042999;28;20344;-32
2024/01/21 12:25:08;;;;;;;11.45;7.60;;;3.40;93.70;;;;;;5052337;28;20224;-28
2024/01/21 12:27:36;;;;;;;11.10;7.55;;;3.40;93.70;;;;;;5058287;28;20190;-30
2024/01/21 12:30:02;;;;;;;9.85;7.60;;;3.40;93.70;;;;;;5058145;28;20207;-33
2024/01/21 12:32:30;;;;;;;11.50;7.50;;;3.40;93.70;;;;;;5057697;28;20198;-28
2024/01/21 12:34:59;;;;;;;11.13;7.97;;;3.40;93.80;;;;;;5073395;28;20201;-28
2024/01/21 12:37:26;;;;;;;10.77;7.25;;;3.40;93.80;;;;;;5040714;28;20291;-36
2024/01/21 12:39:52;;;;;;;13.30;7.95;;;3.40;93.80;;;;;;5057412;28;20207;-28
2024/01/21 12:42:19;;;;;;;11.80;7.93;;;3.40;93.80;;;;;;5073055;28;20654;-32
2024/01/21 12:44:46;;;;;;;13.50;8.30;;;3.40;93.70;;;;;;5069567;28;20841;-28
2024/01/21 12:47:13;;;;;;;9.35;7.38;;;3.40;93.70;;;;;;5076941;28;20194;-27
2024/01/21 12:49:41;;;;;;;12.18;8.35;;;3.40;93.70;;;;;;5056536;28;20231;-30
2024/01/21 12:52:08;;;;;;;13.60;8.25;;;3.40;93.70;;;;;;5057739;28;20196;-28
2024/01/21 12:54:35;;;;;;;11.35;8.07;;;3.40;93.70;;;;;;5076525;28;20198;-27
2024/01/21 12:57:04;;;;;;;10.20;7.20;;;3.40;93.80;;;;;;5076447;28;20179;-27
2024/01/21 12:59:34;;;;;;;11.20;8.02;;;3.40;93.80;;;;;;5046598;28;20299;-30